Nissho Maru — JD2650 — position and weather

sailwx.info

Track history (hours):
 
Tides and Currents Weather Stations Pressure Air Temp Water Temp Dewpoint Dewpoint Depression Visibility Wind Speed Wind Dir Waves Ship Positions

Nissho Maru

Last reported at 2017-Oct-16 08:51 UTC. Time now 2017-Oct-19 23:55 UTC.
Position N 34°04' E 134°51'.

Length 75 m; draft 4 m.

Type: Cargo ship. MMSI: 431000572.

Date/timePositionNaut miles runAvg speedWind from/ knotsBaromVisibWave heightAir tempDewpointWater temp
2017-Oct-16 08:51N 34°04' E 134°51'512.8
2017-Oct-16 08:30N 34°08' E 134°53'613.0
2017-Oct-16 08:00N 34°13' E 134°57'611.4
2017-Oct-16 07:27N 34°19' E 134°59'612.1
2017-Oct-16 06:58N 34°24' E 135°03'613.2
2017-Oct-16 06:29N 34°28' E 135°10'613.3
2017-Oct-16 06:00N 34°32' E 135°15'713.2
2017-Oct-16 05:30N 34°36' E 135°22'5 0.3
2017-Oct-15 13:59N 34°35' E 135°27'4 7.8
2017-Oct-15 13:30N 34°36' E 135°23'611.5
2017-Oct-15 13:00N 34°32' E 135°18'611.4
2017-Oct-15 12:30N 34°29' E 135°13'1710.8
2017-Oct-15 10:56N 34°16' E 134°59'512.0
2017-Oct-15 10:30N 34°14' E 135°05'1 2.6
2017-Oct-15 09:56N 34°15' E 135°07'0 0.0
2017-Oct-15 09:29N 34°15' E 135°07'0 0.0
2017-Oct-15 08:56N 34°15' E 135°07'0 0.0
2017-Oct-15 08:26N 34°15' E 135°07'0 0.0
2017-Oct-15 07:59N 34°15' E 135°07'0 0.1
2017-Oct-15 07:29N 34°15' E 135°07'0 0.0
2017-Oct-15 06:59N 34°15' E 135°07'0 0.0
2017-Oct-15 06:29N 34°15' E 135°07'0 0.0
2017-Oct-15 05:59N 34°15' E 135°07'0 0.0
2017-Oct-15 05:29N 34°15' E 135°07'0 0.0
2017-Oct-15 04:56N 34°15' E 135°07'0 0.0
2017-Oct-15 04:29N 34°15' E 135°07'0 0.0
2017-Oct-15 03:59N 34°15' E 135°07'0 0.0
2017-Oct-15 03:29N 34°15' E 135°07'0 0.0
2017-Oct-15 02:59N 34°15' E 135°07'0 0.0
2017-Oct-15 02:29N 34°15' E 135°07'0 0.0
2017-Oct-15 01:59N 34°15' E 135°07'0 0.0
2017-Oct-15 01:29N 34°15' E 135°07'1 1.1
2017-Oct-15 01:01N 34°14' E 135°07'1 1.9
2017-Oct-15 00:29N 34°15' E 135°06'0 0.0
2017-Oct-14 23:59N 34°15' E 135°06'0 0.0
2017-Oct-14 23:26N 34°15' E 135°06'0 0.0
2017-Oct-14 22:59N 34°15' E 135°06'1 2.9
2017-Oct-14 22:30N 34°14' E 135°05'610.8
2017-Oct-14 21:59N 34°08' E 135°02'219 5.5
2017-Oct-13 06:33N 34°52' E 139°22'111.1
2017-Oct-13 06:26N 34°53' E 139°23'511.1
2017-Oct-13 05:58N 34°56' E 139°28'510.6
2017-Oct-13 05:30N 34°59' E 139°33'611.6
2017-Oct-13 05:00N 35°03' E 139°39'611.7
2017-Oct-13 04:30N 35°07' E 139°43'612.0
2017-Oct-13 04:01N 35°13' E 139°46'611.5
2017-Oct-13 03:30N 35°18' E 139°44'611.3
2017-Oct-13 03:01N 35°23' E 139°41'1 2.0
2017-Oct-13 02:30N 35°24' E 139°40'0 0.0
2017-Oct-13 02:00N 35°24' E 139°40'0 0.0
2017-Oct-13 01:30N 35°24' E 139°40'0 0.0
2017-Oct-13 01:00N 35°24' E 139°40'0 0.0
2017-Oct-13 00:30N 35°24' E 139°40'0 0.0
2017-Oct-13 00:00N 35°24' E 139°40'1 2.8
2017-Oct-12 23:30N 35°24' E 139°42'510.6
2017-Oct-12 23:00N 35°28' E 139°39'0 0.6
2017-Oct-12 22:29N 35°29' E 139°39'0 0.1
2017-Oct-12 22:00N 35°29' E 139°39'3 5.9
2017-Oct-12 21:30N 35°27' E 139°42'1 2.1
2017-Oct-12 21:00N 35°26' E 139°43'0 0.0
2017-Oct-12 20:30N 35°26' E 139°43'0 0.0
2017-Oct-12 19:57N 35°26' E 139°43'0 0.0
2017-Oct-12 19:30N 35°26' E 139°43'0 0.0
2017-Oct-12 19:00N 35°26' E 139°43'0 0.1
2017-Oct-12 18:30N 35°26' E 139°43'0 0.0
2017-Oct-12 18:00N 35°26' E 139°43'0 0.0
2017-Oct-12 17:30N 35°26' E 139°43'0 0.0
2017-Oct-12 17:00N 35°26' E 139°43'0 0.0
2017-Oct-12 16:30N 35°26' E 139°43'0 0.0
2017-Oct-12 16:00N 35°26' E 139°43'0 0.0
2017-Oct-12 15:30N 35°26' E 139°43'0 0.0
2017-Oct-12 15:00N 35°26' E 139°43'0 0.0
2017-Oct-12 14:30N 35°26' E 139°43'0 0.0
2017-Oct-12 14:00N 35°26' E 139°43'0 0.0
2017-Oct-12 13:30N 35°26' E 139°43'0 0.0
2017-Oct-12 12:57N 35°26' E 139°43'0 0.1
2017-Oct-12 12:30N 35°26' E 139°43'1 1.7
2017-Oct-12 12:00N 35°27' E 139°44'5 9.8
2017-Oct-12 11:30N 35°29' E 139°50'3 0.2
2017-Oct-11 22:34N 35°26' E 139°48'112.3
2017-Oct-11 22:28N 35°25' E 139°47'612.1
2017-Oct-11 22:00N 35°20' E 139°44'611.6
2017-Oct-11 21:30N 35°14' E 139°47'612.2
2017-Oct-11 21:00N 35°08' E 139°46'612.1
2017-Oct-11 20:31N 35°03' E 139°44'611.3
2017-Oct-11 20:01N 34°57' E 139°43'  
2017-Oct-08 20:02N 35°05' E 140°19'  
Track history (hours):
 
Tides and Currents Weather Stations Pressure Air Temp Water Temp Dewpoint Dewpoint Depression Visibility Wind Speed Wind Dir Waves Ship Positions

Nissho Maru

Last reported at 2017-Oct-16 08:51 UTC. Time now 2017-Oct-19 23:55 UTC.
Position N 34°04' E 134°51'.

Length 75 m; draft 4 m.

Type: Cargo ship. MMSI: 431000572.

Date/timePositionNaut miles runAvg speedWind from/ knotsBaromVisibWave heightAir tempDewpointWater temp
2017-Oct-16 08:51N 34°04' E 134°51'512.8
2017-Oct-16 08:30N 34°08' E 134°53'613.0
2017-Oct-16 08:00N 34°13' E 134°57'611.4
2017-Oct-16 07:27N 34°19' E 134°59'612.1
2017-Oct-16 06:58N 34°24' E 135°03'613.2
2017-Oct-16 06:29N 34°28' E 135°10'613.3
2017-Oct-16 06:00N 34°32' E 135°15'713.2
2017-Oct-16 05:30N 34°36' E 135°22'5 0.3
2017-Oct-15 13:59N 34°35' E 135°27'4 7.8
2017-Oct-15 13:30N 34°36' E 135°23'611.5
2017-Oct-15 13:00N 34°32' E 135°18'611.4
2017-Oct-15 12:30N 34°29' E 135°13'1710.8
2017-Oct-15 10:56N 34°16' E 134°59'512.0
2017-Oct-15 10:30N 34°14' E 135°05'1 2.6
2017-Oct-15 09:56N 34°15' E 135°07'0 0.0
2017-Oct-15 09:29N 34°15' E 135°07'0 0.0
2017-Oct-15 08:56N 34°15' E 135°07'0 0.0
2017-Oct-15 08:26N 34°15' E 135°07'0 0.0
2017-Oct-15 07:59N 34°15' E 135°07'0 0.1
2017-Oct-15 07:29N 34°15' E 135°07'0 0.0
2017-Oct-15 06:59N 34°15' E 135°07'0 0.0
2017-Oct-15 06:29N 34°15' E 135°07'0 0.0
2017-Oct-15 05:59N 34°15' E 135°07'0 0.0
2017-Oct-15 05:29N 34°15' E 135°07'0 0.0
2017-Oct-15 04:56N 34°15' E 135°07'0 0.0
2017-Oct-15 04:29N 34°15' E 135°07'0 0.0
2017-Oct-15 03:59N 34°15' E 135°07'0 0.0
2017-Oct-15 03:29N 34°15' E 135°07'0 0.0
2017-Oct-15 02:59N 34°15' E 135°07'0 0.0
2017-Oct-15 02:29N 34°15' E 135°07'0 0.0
2017-Oct-15 01:59N 34°15' E 135°07'0 0.0
2017-Oct-15 01:29N 34°15' E 135°07'1 1.1
2017-Oct-15 01:01N 34°14' E 135°07'1 1.9
2017-Oct-15 00:29N 34°15' E 135°06'0 0.0
2017-Oct-14 23:59N 34°15' E 135°06'0 0.0
2017-Oct-14 23:26N 34°15' E 135°06'0 0.0
2017-Oct-14 22:59N 34°15' E 135°06'1 2.9
2017-Oct-14 22:30N 34°14' E 135°05'610.8
2017-Oct-14 21:59N 34°08' E 135°02'219 5.5
2017-Oct-13 06:33N 34°52' E 139°22'111.1
2017-Oct-13 06:26N 34°53' E 139°23'511.1
2017-Oct-13 05:58N 34°56' E 139°28'510.6
2017-Oct-13 05:30N 34°59' E 139°33'611.6
2017-Oct-13 05:00N 35°03' E 139°39'611.7
2017-Oct-13 04:30N 35°07' E 139°43'612.0
2017-Oct-13 04:01N 35°13' E 139°46'611.5
2017-Oct-13 03:30N 35°18' E 139°44'611.3
2017-Oct-13 03:01N 35°23' E 139°41'1 2.0
2017-Oct-13 02:30N 35°24' E 139°40'0 0.0
2017-Oct-13 02:00N 35°24' E 139°40'0 0.0
2017-Oct-13 01:30N 35°24' E 139°40'0 0.0
2017-Oct-13 01:00N 35°24' E 139°40'0 0.0
2017-Oct-13 00:30N 35°24' E 139°40'0 0.0
2017-Oct-13 00:00N 35°24' E 139°40'1 2.8
2017-Oct-12 23:30N 35°24' E 139°42'510.6
2017-Oct-12 23:00N 35°28' E 139°39'0 0.6
2017-Oct-12 22:29N 35°29' E 139°39'0 0.1
2017-Oct-12 22:00N 35°29' E 139°39'3 5.9
2017-Oct-12 21:30N 35°27' E 139°42'1 2.1
2017-Oct-12 21:00N 35°26' E 139°43'0 0.0
2017-Oct-12 20:30N 35°26' E 139°43'0 0.0
2017-Oct-12 19:57N 35°26' E 139°43'0 0.0
2017-Oct-12 19:30N 35°26' E 139°43'0 0.0
2017-Oct-12 19:00N 35°26' E 139°43'0 0.1
2017-Oct-12 18:30N 35°26' E 139°43'0 0.0
2017-Oct-12 18:00N 35°26' E 139°43'0 0.0
2017-Oct-12 17:30N 35°26' E 139°43'0 0.0
2017-Oct-12 17:00N 35°26' E 139°43'0 0.0
2017-Oct-12 16:30N 35°26' E 139°43'0 0.0
2017-Oct-12 16:00N 35°26' E 139°43'0 0.0
2017-Oct-12 15:30N 35°26' E 139°43'0 0.0
2017-Oct-12 15:00N 35°26' E 139°43'0 0.0
2017-Oct-12 14:30N 35°26' E 139°43'0 0.0
2017-Oct-12 14:00N 35°26' E 139°43'0 0.0
2017-Oct-12 13:30N 35°26' E 139°43'0 0.0
2017-Oct-12 12:57N 35°26' E 139°43'0 0.1
2017-Oct-12 12:30N 35°26' E 139°43'1 1.7
2017-Oct-12 12:00N 35°27' E 139°44'5 9.8
2017-Oct-12 11:30N 35°29' E 139°50'3 0.2
2017-Oct-11 22:34N 35°26' E 139°48'112.3
2017-Oct-11 22:28N 35°25' E 139°47'612.1
2017-Oct-11 22:00N 35°20' E 139°44'611.6
2017-Oct-11 21:30N 35°14' E 139°47'612.2
2017-Oct-11 21:00N 35°08' E 139°46'612.1
2017-Oct-11 20:31N 35°03' E 139°44'611.3
2017-Oct-11 20:01N 34°57' E 139°43'  
2017-Oct-08 20:02N 35°05' E 140°19'  

Dump ship's entire track history